sensor_id;sensor_type;location;lat;lon;timestamp;pressure;altitude;pressure_sealevel;temperature;humidity
50057;BME280;36875;49.468;11.200;2024-02-23T00:00:08;95700.25;;;21.31;40.74
50057;BME280;36875;49.468;11.200;2024-02-23T00:02:36;95692.78;;;21.28;40.74
50057;BME280;36875;49.468;11.200;2024-02-23T00:05:02;95701.00;;;21.25;40.93
50057;BME280;36875;49.468;11.200;2024-02-23T00:07:27;95701.41;;;21.27;40.45
50057;BME280;36875;49.468;11.200;2024-02-23T00:09:52;95709.16;;;21.21;40.89
50057;BME280;36875;49.468;11.200;2024-02-23T00:12:18;95718.88;;;21.18;41.02
50057;BME280;36875;49.468;11.200;2024-02-23T00:14:43;95727.13;;;21.22;40.67
50057;BME280;36875;49.468;11.200;2024-02-23T00:17:10;95735.22;;;21.15;40.91
50057;BME280;36875;49.468;11.200;2024-02-23T00:19:36;95728.63;;;21.16;40.85
50057;BME280;36875;49.468;11.200;2024-02-23T00:22:02;95718.78;;;21.11;40.78
50057;BME280;36875;49.468;11.200;2024-02-23T00:24:27;95723.84;;;21.09;40.76
50057;BME280;36875;49.468;11.200;2024-02-23T00:26:53;95732.00;;;21.06;40.98
50057;BME280;36875;49.468;11.200;2024-02-23T00:29:18;95732.75;;;21.03;40.91
50057;BME280;36875;49.468;11.200;2024-02-23T00:31:44;95735.84;;;21.01;41.17
50057;BME280;36875;49.468;11.200;2024-02-23T00:34:13;95738.94;;;20.99;41.25
50057;BME280;36875;49.468;11.200;2024-02-23T00:36:39;95740.91;;;20.99;40.98
50057;BME280;36875;49.468;11.200;2024-02-23T00:39:05;95749.47;;;20.97;40.94
50057;BME280;36875;49.468;11.200;2024-02-23T00:41:32;95756.44;;;20.95;41.06
50057;BME280;36875;49.468;11.200;2024-02-23T00:43:57;95773.63;;;20.92;41.33
50057;BME280;36875;49.468;11.200;2024-02-23T00:46:23;95787.28;;;20.92;40.93
50057;BME280;36875;49.468;11.200;2024-02-23T00:48:48;95787.59;;;20.87;41.10
50057;BME280;36875;49.468;11.200;2024-02-23T00:51:15;95802.81;;;20.88;41.22
50057;BME280;36875;49.468;11.200;2024-02-23T00:53:40;95807.47;;;20.84;41.36
50057;BME280;36875;49.468;11.200;2024-02-23T00:56:05;95809.81;;;20.85;41.23
50057;BME280;36875;49.468;11.200;2024-02-23T00:58:31;95823.84;;;20.84;41.20
50057;BME280;36875;49.468;11.200;2024-02-23T01:00:56;95817.56;;;20.79;41.30
50057;BME280;36875;49.468;11.200;2024-02-23T01:03:21;95829.63;;;20.78;41.36
50057;BME280;36875;49.468;11.200;2024-02-23T01:05:47;95824.91;;;20.75;41.31
50057;BME280;36875;49.468;11.200;2024-02-23T01:08:14;95814.34;;;20.74;41.23
50057;BME280;36875;49.468;11.200;2024-02-23T01:10:39;95801.41;;;20.71;41.42
50057;BME280;36875;49.468;11.200;2024-02-23T01:13:04;95811.19;;;20.72;41.24
50057;BME280;36875;49.468;11.200;2024-02-23T01:15:30;95815.00;;;20.67;41.45
50057;BME280;36875;49.468;11.200;2024-02-23T01:17:55;95828.25;;;20.65;41.66
50057;BME280;36875;49.468;11.200;2024-02-23T01:20:21;95831.34;;;20.64;41.35
50057;BME280;36875;49.468;11.200;2024-02-23T01:22:46;95829.78;;;20.63;41.64
50057;BME280;36875;49.468;11.200;2024-02-23T01:25:13;95827.41;;;20.61;41.46
50057;BME280;36875;49.468;11.200;2024-02-23T01:27:40;95835.94;;;20.59;41.54
50057;BME280;36875;49.468;11.200;2024-02-23T01:30:06;95841.78;;;20.58;41.72
50057;BME280;36875;49.468;11.200;2024-02-23T01:32:32;95836.66;;;20.56;41.76
50057;BME280;36875;49.468;11.200;2024-02-23T01:34:57;95850.72;;;20.55;41.45
50057;BME280;36875;49.468;11.200;2024-02-23T01:37:22;95856.53;;;20.53;41.58
50057;BME280;36875;49.468;11.200;2024-02-23T01:39:47;95867.06;;;20.51;41.66
50057;BME280;36875;49.468;11.200;2024-02-23T01:42:14;95876.38;;;20.50;41.67
50057;BME280;36875;49.468;11.200;2024-02-23T01:44:39;95869.34;;;20.49;41.48
50057;BME280;36875;49.468;11.200;2024-02-23T01:47:05;95865.81;;;20.49;41.49
50057;BME280;36875;49.468;11.200;2024-02-23T01:49:30;95873.22;;;20.48;41.69
50057;BME280;36875;49.468;11.200;2024-02-23T01:51:58;95880.59;;;20.44;41.67
50057;BME280;36875;49.468;11.200;2024-02-23T01:54:24;95884.81;;;20.41;41.80
50057;BME280;36875;49.468;11.200;2024-02-23T01:56:49;95875.06;;;20.40;41.60
50057;BME280;36875;49.468;11.200;2024-02-23T01:59:16;95885.91;;;20.37;41.94
50057;BME280;36875;49.468;11.200;2024-02-23T02:01:42;95883.97;;;20.37;41.90
50057;BME280;36875;49.468;11.200;2024-02-23T02:04:08;95887.06;;;20.36;41.88
50057;BME280;36875;49.468;11.200;2024-02-23T02:06:33;95897.13;;;20.32;41.86
50057;BME280;36875;49.468;11.200;2024-02-23T02:08:58;95896.34;;;20.31;42.05
50057;BME280;36875;49.468;11.200;2024-02-23T02:11:24;95911.16;;;20.30;41.77
50057;BME280;36875;49.468;11.200;2024-02-23T02:13:49;95899.00;;;20.28;41.87
50057;BME280;36875;49.468;11.200;2024-02-23T02:16:16;95893.19;;;20.29;42.01
50057;BME280;36875;49.468;11.200;2024-02-23T02:18:41;95893.13;;;20.26;42.02
50057;BME280;36875;49.468;11.200;2024-02-23T02:21:06;95899.72;;;20.25;41.83
50057;BME280;36875;49.468;11.200;2024-02-23T02:23:32;95919.19;;;20.23;41.98
50057;BME280;36875;49.468;11.200;2024-02-23T02:25:57;95921.94;;;20.23;41.85
50057;BME280;36875;49.468;11.200;2024-02-23T02:28:23;95942.56;;;20.20;41.93
50057;BME280;36875;49.468;11.200;2024-02-23T02:30:49;95953.84;;;20.19;42.21
50057;BME280;36875;49.468;11.200;2024-02-23T02:33:15;95949.09;;;20.16;42.01
50057;BME280;36875;49.468;11.200;2024-02-23T02:35:41;95945.16;;;20.13;42.15
50057;BME280;36875;49.468;11.200;2024-02-23T02:38:06;95951.41;;;20.14;42.07
50057;BME280;36875;49.468;11.200;2024-02-23T02:40:31;95946.28;;;20.12;41.90
50057;BME280;36875;49.468;11.200;2024-02-23T02:42:57;95945.09;;;20.10;42.18
50057;BME280;36875;49.468;11.200;2024-02-23T02:45:22;95954.81;;;20.07;42.08
50057;BME280;36875;49.468;11.200;2024-02-23T02:47:47;95962.53;;;20.05;42.13
50057;BME280;36875;49.468;11.200;2024-02-23T02:50:14;95952.78;;;20.04;42.17
50057;BME280;36875;49.468;11.200;2024-02-23T02:52:40;95962.09;;;20.03;42.06
50057;BME280;36875;49.468;11.200;2024-02-23T02:55:05;95961.25;;;19.99;42.19
50057;BME280;36875;49.468;11.200;2024-02-23T02:57:31;95977.63;;;19.99;42.39
50057;BME280;36875;49.468;11.200;2024-02-23T02:59:56;95978.78;;;19.98;42.29
50057;BME280;36875;49.468;11.200;2024-02-23T03:02:21;95967.88;;;19.98;42.14
50057;BME280;36875;49.468;11.200;2024-02-23T03:04:47;95979.16;;;19.96;42.15
50057;BME280;36875;49.468;11.200;2024-02-23T03:07:13;95977.91;;;19.94;42.46
50057;BME280;36875;49.468;11.200;2024-02-23T03:09:39;95975.91;;;19.91;42.50
50057;BME280;36875;49.468;11.200;2024-02-23T03:12:04;95973.88;;;19.88;42.45
50057;BME280;36875;49.468;11.200;2024-02-23T03:14:30;95993.00;;;19.88;42.33
50057;BME280;36875;49.468;11.200;2024-02-23T03:16:55;95991.38;;;19.87;42.54
50057;BME280;36875;49.468;11.200;2024-02-23T03:19:20;95994.84;;;19.83;42.23
50057;BME280;36875;49.468;11.200;2024-02-23T03:21:47;96001.81;;;19.81;42.31
50057;BME280;36875;49.468;11.200;2024-02-23T03:24:14;96006.03;;;19.78;42.38
50057;BME280;36875;49.468;11.200;2024-02-23T03:26:39;96011.16;;;19.80;42.36
50057;BME280;36875;49.468;11.200;2024-02-23T03:29:04;96011.06;;;19.76;42.20
50057;BME280;36875;49.468;11.200;2024-02-23T03:31:30;96005.59;;;19.76;42.50
50057;BME280;36875;49.468;11.200;2024-02-23T03:33:55;96000.50;;;19.75;42.53
50057;BME280;36875;49.468;11.200;2024-02-23T03:36:20;96016.44;;;19.73;42.58
50057;BME280;36875;49.468;11.200;2024-02-23T03:38:46;96017.91;;;19.70;42.52
50057;BME280;36875;49.468;11.200;2024-02-23T03:41:13;96021.44;;;19.71;42.64
50057;BME280;36875;49.468;11.200;2024-02-23T03:43:38;96025.66;;;19.68;42.54
50057;BME280;36875;49.468;11.200;2024-02-23T03:46:05;96018.97;;;19.65;42.45
50057;BME280;36875;49.468;11.200;2024-02-23T03:48:30;96006.84;;;19.63;42.51
50057;BME280;36875;49.468;11.200;2024-02-23T03:50:56;96011.84;;;19.61;42.63
50057;BME280;36875;49.468;11.200;2024-02-23T03:53:21;96005.94;;;19.59;42.72
50057;BME280;36875;49.468;11.200;2024-02-23T03:55:47;96021.97;;;19.60;42.54
50057;BME280;36875;49.468;11.200;2024-02-23T03:58:13;96023.91;;;19.60;42.33
50057;BME280;36875;49.468;11.200;2024-02-23T04:00:39;96032.81;;;19.57;42.68
50057;BME280;36875;49.468;11.200;2024-02-23T04:03:04;96020.66;;;19.54;42.66
50057;BME280;36875;49.468;11.200;2024-02-23T04:05:29;96016.34;;;19.53;42.58
50057;BME280;36875;49.468;11.200;2024-02-23T04:07:55;96012.75;;;19.49;42.58
50057;BME280;36875;49.468;11.200;2024-02-23T04:10:20;96021.72;;;19.50;42.64
50057;BME280;36875;49.468;11.200;2024-02-23T04:12:46;96025.59;;;19.49;42.63
50057;BME280;36875;49.468;11.200;2024-02-23T04:15:12;96027.09;;;19.46;42.91
50057;BME280;36875;49.468;11.200;2024-02-23T04:17:38;96028.59;;;19.43;42.78
50057;BME280;36875;49.468;11.200;2024-02-23T04:20:05;96037.56;;;19.44;42.50
50057;BME280;36875;49.468;11.200;2024-02-23T04:22:31;96036.00;;;19.43;42.80
50057;BME280;36875;49.468;11.200;2024-02-23T04:24:56;96038.63;;;19.39;42.77
50057;BME280;36875;49.468;11.200;2024-02-23T04:27:22;96041.28;;;19.36;42.85
50057;BME280;36875;49.468;11.200;2024-02-23T04:29:47;96038.97;;;19.38;42.72
50057;BME280;36875;49.468;11.200;2024-02-23T04:32:13;96047.16;;;19.38;42.57
50057;BME280;36875;49.468;11.200;2024-02-23T04:34:39;96052.97;;;19.36;42.62
50057;BME280;36875;49.468;11.200;2024-02-23T04:37:06;96060.72;;;19.34;43.02
50057;BME280;36875;49.468;11.200;2024-02-23T04:39:31;96057.19;;;19.34;43.00
50057;BME280;36875;49.468;11.200;2024-02-23T04:41:56;96052.44;;;19.31;42.83
50057;BME280;36875;49.468;11.200;2024-02-23T04:44:22;96057.44;;;19.29;42.85
50057;BME280;36875;49.468;11.200;2024-02-23T04:46:47;96071.88;;;19.29;42.92
50057;BME280;36875;49.468;11.200;2024-02-23T04:49:14;96074.94;;;19.27;42.89
50057;BME280;36875;49.468;11.200;2024-02-23T04:51:40;96067.13;;;19.26;42.98
50057;BME280;36875;49.468;11.200;2024-02-23T04:54:05;96071.00;;;19.25;43.06
50057;BME280;36875;49.468;11.200;2024-02-23T04:56:31;96079.53;;;19.23;42.91
50057;BME280;36875;49.468;11.200;2024-02-23T04:58:56;96081.03;;;19.21;42.91
50057;BME280;36875;49.468;11.200;2024-02-23T05:01:22;96073.63;;;19.21;43.13
50057;BME280;36875;49.468;11.200;2024-02-23T05:03:47;96086.81;;;19.19;43.04
50057;BME280;36875;49.468;11.200;2024-02-23T05:06:14;96095.34;;;19.18;42.93
50057;BME280;36875;49.468;11.200;2024-02-23T05:08:39;96098.09;;;19.18;43.16
50057;BME280;36875;49.468;11.200;2024-02-23T05:11:06;96084.00;;;19.16;43.11
50057;BME280;36875;49.468;11.200;2024-02-23T05:13:31;96073.78;;;19.13;43.09
50057;BME280;36875;49.468;11.200;2024-02-23T05:15:56;96073.78;;;19.13;42.93
50057;BME280;36875;49.468;11.200;2024-02-23T05:18:22;96073.78;;;19.13;42.97
50057;BME280;36875;49.468;11.200;2024-02-23T05:20:47;96083.13;;;19.12;43.15
50057;BME280;36875;49.468;11.200;2024-02-23T05:23:14;96078.03;;;19.10;42.91
50057;BME280;36875;49.468;11.200;2024-02-23T05:25:40;96071.75;;;19.10;43.17
50057;BME280;36875;49.468;11.200;2024-02-23T05:28:06;96075.19;;;19.06;43.18
50057;BME280;36875;49.468;11.200;2024-02-23T05:30:31;96074.41;;;19.06;43.04
50057;BME280;36875;49.468;11.200;2024-02-23T05:32:56;96069.75;;;19.06;43.00
50057;BME280;36875;49.468;11.200;2024-02-23T05:35:22;96067.38;;;19.05;42.98
50057;BME280;36875;49.468;11.200;2024-02-23T05:37:47;96056.81;;;19.03;43.15
50057;BME280;36875;49.468;11.200;2024-02-23T05:40:14;96059.53;;;19.03;43.21
50057;BME280;36875;49.468;11.200;2024-02-23T05:42:40;96064.53;;;19.01;43.23
50057;BME280;36875;49.468;11.200;2024-02-23T05:45:06;96054.78;;;19.00;43.19
50057;BME280;36875;49.468;11.200;2024-02-23T05:47:34;96065.66;;;19.00;43.17
50057;BME280;36875;49.468;11.200;2024-02-23T05:49:59;96066.84;;;18.99;43.14
50057;BME280;36875;49.468;11.200;2024-02-23T05:52:24;96062.50;;;18.98;43.37
50057;BME280;36875;49.468;11.200;2024-02-23T05:54:50;96054.69;;;18.97;43.10
50057;BME280;36875;49.468;11.200;2024-02-23T05:57:18;96065.94;;;18.95;43.30
50057;BME280;36875;49.468;11.200;2024-02-23T05:59:43;96073.78;;;18.97;43.00
50057;BME280;36875;49.468;11.200;2024-02-23T06:02:09;96090.91;;;18.97;43.26
50057;BME280;36875;49.468;11.200;2024-02-23T06:04:34;96091.03;;;19.01;43.24
50057;BME280;36875;49.468;11.200;2024-02-23T06:06:59;96089.97;;;19.05;42.98
50057;BME280;36875;49.468;11.200;2024-02-23T06:09:24;96095.41;;;19.05;43.24
50057;BME280;36875;49.468;11.200;2024-02-23T06:11:50;96107.03;;;19.02;43.44
50057;BME280;36875;49.468;11.200;2024-02-23T06:14:16;96105.03;;;19.15;43.45
50057;BME280;36875;49.468;11.200;2024-02-23T06:16:42;96109.63;;;19.27;42.98
50057;BME280;36875;49.468;11.200;2024-02-23T06:19:07;96101.81;;;19.41;42.96
50057;BME280;36875;49.468;11.200;2024-02-23T06:21:33;96114.91;;;19.52;43.04
50057;BME280;36875;49.468;11.200;2024-02-23T06:23:58;96130.06;;;19.65;42.78
50057;BME280;36875;49.468;11.200;2024-02-23T06:26:24;96140.81;;;19.74;42.84
50057;BME280;36875;49.468;11.200;2024-02-23T06:28:49;96149.28;;;19.84;42.58
50057;BME280;36875;49.468;11.200;2024-02-23T06:31:16;96163.81;;;19.89;42.71
50057;BME280;36875;49.468;11.200;2024-02-23T06:33:41;96159.69;;;19.95;42.48
50057;BME280;36875;49.468;11.200;2024-02-23T06:36:07;96167.31;;;20.05;42.54
50057;BME280;36875;49.468;11.200;2024-02-23T06:38:32;96172.88;;;20.09;42.11
50057;BME280;36875;49.468;11.200;2024-02-23T06:40:58;96162.84;;;19.97;41.30
50057;BME280;36875;49.468;11.200;2024-02-23T06:43:23;96145.69;;;19.96;41.00
50057;BME280;36875;49.468;11.200;2024-02-23T06:45:48;96146.19;;;20.02;41.44
50057;BME280;36875;49.468;11.200;2024-02-23T06:48:15;96145.03;;;20.03;41.95
50057;BME280;36875;49.468;11.200;2024-02-23T06:50:40;96140.81;;;20.06;41.88
50057;BME280;36875;49.468;11.200;2024-02-23T06:53:06;96153.41;;;20.10;41.86
50057;BME280;36875;49.468;11.200;2024-02-23T06:55:31;96155.69;;;20.24;41.61
50057;BME280;36875;49.468;11.200;2024-02-23T06:57:57;96168.88;;;20.38;41.34
50057;BME280;36875;49.468;11.200;2024-02-23T07:00:22;96158.88;;;20.62;40.75
50057;BME280;36875;49.468;11.200;2024-02-23T07:02:47;96167.31;;;20.72;40.90
50057;BME280;36875;49.468;11.200;2024-02-23T07:05:14;96163.00;;;20.91;40.82
50057;BME280;36875;49.468;11.200;2024-02-23T07:07:39;96164.69;;;20.95;40.70
50057;BME280;36875;49.468;11.200;2024-02-23T07:10:05;96163.16;;;20.98;40.00
50057;BME280;36875;49.468;11.200;2024-02-23T07:12:31;96167.31;;;21.11;39.21
50057;BME280;36875;49.468;11.200;2024-02-23T07:14:56;96160.63;;;21.09;38.12
50057;BME280;36875;49.468;11.200;2024-02-23T07:17:21;96161.50;;;21.13;36.95
50057;BME280;36875;49.468;11.200;2024-02-23T07:19:47;96155.59;;;21.30;36.59
50057;BME280;36875;49.468;11.200;2024-02-23T07:22:14;96148.22;;;21.34;35.02
50057;BME280;36875;49.468;11.200;2024-02-23T07:24:40;96151.19;;;21.68;34.88
50057;BME280;36875;49.468;11.200;2024-02-23T07:27:06;96144.59;;;21.96;34.91
50057;BME280;36875;49.468;11.200;2024-02-23T07:29:31;96146.78;;;22.33;34.93
50057;BME280;36875;49.468;11.200;2024-02-23T07:31:57;96140.56;;;22.36;35.04
50057;BME280;36875;49.468;11.200;2024-02-23T07:34:22;96137.09;;;22.69;34.44
50057;BME280;36875;49.468;11.200;2024-02-23T07:36:47;96149.41;;;23.13;33.79
50057;BME280;36875;49.468;11.200;2024-02-23T07:39:14;96144.31;;;23.49;33.30
50057;BME280;36875;49.468;11.200;2024-02-23T07:41:39;96147.66;;;23.73;33.05
50057;BME280;36875;49.468;11.200;2024-02-23T07:44:05;96153.75;;;23.52;33.69
50057;BME280;36875;49.468;11.200;2024-02-23T07:46:30;96162.34;;;23.84;33.26
50057;BME280;36875;49.468;11.200;2024-02-23T07:48:55;96169.13;;;23.97;33.46
50057;BME280;36875;49.468;11.200;2024-02-23T07:51:21;96179.72;;;23.99;33.24
50057;BME280;36875;49.468;11.200;2024-02-23T07:53:46;96185.00;;;24.22;33.25
50057;BME280;36875;49.468;11.200;2024-02-23T07:56:13;96195.56;;;24.16;33.44
50057;BME280;36875;49.468;11.200;2024-02-23T07:58:38;96202.28;;;24.19;33.37
50057;BME280;36875;49.468;11.200;2024-02-23T08:01:03;96212.84;;;24.17;33.54
50057;BME280;36875;49.468;11.200;2024-02-23T08:03:29;96203.84;;;24.20;33.50
50057;BME280;36875;49.468;11.200;2024-02-23T08:05:54;96199.97;;;24.24;33.52
50057;BME280;36875;49.468;11.200;2024-02-23T08:08:19;96175.63;;;24.27;33.47
50057;BME280;36875;49.468;11.200;2024-02-23T08:10:47;96154.00;;;24.21;33.49
50057;BME280;36875;49.468;11.200;2024-02-23T08:13:14;96141.00;;;24.18;33.80
50057;BME280;36875;49.468;11.200;2024-02-23T08:15:40;96152.81;;;24.19;33.65
50057;BME280;36875;49.468;11.200;2024-02-23T08:18:05;96156.69;;;24.14;33.79
50057;BME280;36875;49.468;11.200;2024-02-23T08:20:31;96163.25;;;23.99;34.13
50057;BME280;36875;49.468;11.200;2024-02-23T08:22:56;96165.19;;;23.98;34.03
50057;BME280;36875;49.468;11.200;2024-02-23T08:25:21;96181.66;;;23.98;34.21
50057;BME280;36875;49.468;11.200;2024-02-23T08:27:47;96188.66;;;23.89;34.41
50057;BME280;36875;49.468;11.200;2024-02-23T08:30:14;96193.09;;;24.04;34.24
50057;BME280;36875;49.468;11.200;2024-02-23T08:32:40;96206.81;;;24.00;34.59
50057;BME280;36875;49.468;11.200;2024-02-23T08:35:06;96210.66;;;23.92;34.50
50057;BME280;36875;49.468;11.200;2024-02-23T08:37:32;96210.47;;;23.74;35.20
50057;BME280;36875;49.468;11.200;2024-02-23T08:39:57;96205.06;;;23.81;34.90
50057;BME280;36875;49.468;11.200;2024-02-23T08:42:23;96202.69;;;23.80;35.33
50057;BME280;36875;49.468;11.200;2024-02-23T08:44:48;96212.06;;;23.75;34.57
50057;BME280;36875;49.468;11.200;2024-02-23T08:47:15;96216.75;;;23.75;33.49
50057;BME280;36875;49.468;11.200;2024-02-23T08:49:40;96223.75;;;23.68;33.93
50057;BME280;36875;49.468;11.200;2024-02-23T08:52:06;96223.69;;;23.99;33.68
50057;BME280;36875;49.468;11.200;2024-02-23T08:54:31;96223.19;;;24.34;33.44
50057;BME280;36875;49.468;11.200;2024-02-23T08:56:56;96224.75;;;24.35;33.31
50057;BME280;36875;49.468;11.200;2024-02-23T08:59:22;96224.31;;;24.74;32.94
50057;BME280;36875;49.468;11.200;2024-02-23T09:01:47;96223.16;;;24.82;32.87
50057;BME280;36875;49.468;11.200;2024-02-23T09:04:14;96224.75;;;24.84;32.76
50057;BME280;36875;49.468;11.200;2024-02-23T09:06:39;96222.53;;;25.14;32.14
50057;BME280;36875;49.468;11.200;2024-02-23T09:09:04;96219.03;;;25.17;32.28
50057;BME280;36875;49.468;11.200;2024-02-23T09:11:30;96226.63;;;25.38;31.83
50057;BME280;36875;49.468;11.200;2024-02-23T09:13:55;96217.94;;;25.40;32.04
50057;BME280;36875;49.468;11.200;2024-02-23T09:16:20;96218.81;;;25.66;31.57
50057;BME280;36875;49.468;11.200;2024-02-23T09:18:48;96208.22;;;25.75;31.25
50057;BME280;36875;49.468;11.200;2024-02-23T09:21:15;96209.78;;;25.65;30.08
50057;BME280;36875;49.468;11.200;2024-02-23T09:23:40;96237.22;;;25.40;30.41
50057;BME280;36875;49.468;11.200;2024-02-23T09:26:08;96253.34;;;25.34;30.86
50057;BME280;36875;49.468;11.200;2024-02-23T09:28:34;96257.66;;;25.32;31.15
50057;BME280;36875;49.468;11.200;2024-02-23T09:30:59;96248.25;;;25.33;31.20
50057;BME280;36875;49.468;11.200;2024-02-23T09:33:24;96239.66;;;25.52;30.92
50057;BME280;36875;49.468;11.200;2024-02-23T09:35:49;96245.44;;;25.26;31.46
50057;BME280;36875;49.468;11.200;2024-02-23T09:38:16;96234.81;;;25.24;31.40
50057;BME280;36875;49.468;11.200;2024-02-23T09:40:41;96231.25;;;25.20;31.88
50057;BME280;36875;49.468;11.200;2024-02-23T09:43:07;96242.25;;;25.20;31.88
50057;BME280;36875;49.468;11.200;2024-02-23T09:45:33;96248.53;;;25.20;31.81
50057;BME280;36875;49.468;11.200;2024-02-23T09:47:58;96253.19;;;25.09;32.05
50057;BME280;36875;49.468;11.200;2024-02-23T09:50:25;96256.91;;;24.72;32.95
50057;BME280;36875;49.468;11.200;2024-02-23T09:52:53;96258.22;;;24.93;32.68
50057;BME280;36875;49.468;11.200;2024-02-23T09:55:20;96267.13;;;24.75;32.61
50057;BME280;36875;49.468;11.200;2024-02-23T09:57:46;96277.44;;;24.86;32.70
50057;BME280;36875;49.468;11.200;2024-02-23T10:00:12;96282.19;;;24.89;32.97
50057;BME280;36875;49.468;11.200;2024-02-23T10:02:40;96287.78;;;25.10;32.45
50057;BME280;36875;49.468;11.200;2024-02-23T10:05:06;96288.16;;;25.05;32.41
50057;BME280;36875;49.468;11.200;2024-02-23T10:07:32;96277.34;;;25.34;32.28
50057;BME280;36875;49.468;11.200;2024-02-23T10:09:58;96270.69;;;25.42;31.82
50057;BME280;36875;49.468;11.200;2024-02-23T10:12:24;96271.53;;;25.53;31.93
50057;BME280;36875;49.468;11.200;2024-02-23T10:14:50;96266.75;;;25.43;32.45
50057;BME280;36875;49.468;11.200;2024-02-23T10:17:15;96267.25;;;25.74;31.50
50057;BME280;36875;49.468;11.200;2024-02-23T10:19:40;96274.69;;;25.59;32.12
50057;BME280;36875;49.468;11.200;2024-02-23T10:22:06;96275.50;;;25.67;32.08
50057;BME280;36875;49.468;11.200;2024-02-23T10:24:31;96272.66;;;25.42;32.05
50057;BME280;36875;49.468;11.200;2024-02-23T10:26:56;96269.25;;;25.77;31.81
50057;BME280;36875;49.468;11.200;2024-02-23T10:29:25;96264.13;;;25.79;31.71
50057;BME280;36875;49.468;11.200;2024-02-23T10:31:51;96277.06;;;25.61;32.13
50057;BME280;36875;49.468;11.200;2024-02-23T10:34:17;96274.03;;;25.98;31.34
50057;BME280;36875;49.468;11.200;2024-02-23T10:36:43;96275.53;;;25.74;31.33
50057;BME280;36875;49.468;11.200;2024-02-23T10:39:10;96277.47;;;25.66;32.01
50057;BME280;36875;49.468;11.200;2024-02-23T10:41:36;96278.59;;;25.54;31.73
50057;BME280;36875;49.468;11.200;2024-02-23T10:44:04;96282.47;;;25.39;32.39
50057;BME280;36875;49.468;11.200;2024-02-23T10:46:33;96281.00;;;25.67;32.08
50057;BME280;36875;49.468;11.200;2024-02-23T10:48:59;96274.38;;;25.82;31.74
50057;BME280;36875;49.468;11.200;2024-02-23T10:51:26;96264.47;;;25.59;31.62
50057;BME280;36875;49.468;11.200;2024-02-23T10:53:52;96247.13;;;25.55;31.41
50057;BME280;36875;49.468;11.200;2024-02-23T10:56:18;96276.13;;;25.24;32.43
50057;BME280;36875;49.468;11.200;2024-02-23T10:58:44;96269.97;;;25.59;32.19
50057;BME280;36875;49.468;11.200;2024-02-23T11:01:10;96265.13;;;25.31;32.95
50057;BME280;36875;49.468;11.200;2024-02-23T11:03:41;96254.88;;;25.25;32.40
50057;BME280;36875;49.468;11.200;2024-02-23T11:06:08;96277.63;;;25.21;32.50
50057;BME280;36875;49.468;11.200;2024-02-23T11:08:33;96272.56;;;25.27;32.34
50057;BME280;36875;49.468;11.200;2024-02-23T11:11:07;96269.00;;;25.23;32.54
50057;BME280;36875;49.468;11.200;2024-02-23T11:13:35;96270.31;;;25.47;32.47
50057;BME280;36875;49.468;11.200;2024-02-23T11:16:01;96265.63;;;25.62;31.95
50057;BME280;36875;49.468;11.200;2024-02-23T11:18:28;96257.41;;;25.76;32.16
50057;BME280;36875;49.468;11.200;2024-02-23T11:20:58;96257.00;;;25.64;31.90
50057;BME280;36875;49.468;11.200;2024-02-23T11:23:24;96253.59;;;26.17;31.55
50057;BME280;36875;49.468;11.200;2024-02-23T11:26:04;96251.53;;;25.85;31.69
50057;BME280;36875;49.468;11.200;2024-02-23T11:28:31;96247.28;;;26.02;31.72
50057;BME280;36875;49.468;11.200;2024-02-23T11:30:57;96246.13;;;26.21;31.55
50057;BME280;36875;49.468;11.200;2024-02-23T11:33:27;96238.25;;;26.20;31.52
50057;BME280;36875;49.468;11.200;2024-02-23T11:35:53;96252.41;;;26.14;31.91
50057;BME280;36875;49.468;11.200;2024-02-23T11:38:22;96252.00;;;26.02;32.13
50057;BME280;36875;49.468;11.200;2024-02-23T11:40:48;96244.53;;;26.06;31.74
50057;BME280;36875;49.468;11.200;2024-02-23T11:43:14;96248.09;;;26.03;32.18
50057;BME280;36875;49.468;11.200;2024-02-23T11:45:40;96247.69;;;26.15;31.56
50057;BME280;36875;49.468;11.200;2024-02-23T11:48:07;96249.97;;;25.84;32.28
50057;BME280;36875;49.468;11.200;2024-02-23T11:50:33;96252.03;;;26.16;32.08
50057;BME280;36875;49.468;11.200;2024-02-23T11:52:59;96254.78;;;26.09;31.64
50057;BME280;36875;49.468;11.200;2024-02-23T11:55:26;96251.22;;;26.05;32.24
50057;BME280;36875;49.468;11.200;2024-02-23T11:57:52;96247.28;;;26.09;31.89
50057;BME280;36875;49.468;11.200;2024-02-23T12:00:18;96252.44;;;26.25;31.32
50057;BME280;36875;49.468;11.200;2024-02-23T12:02:44;96234.69;;;26.23;31.38
50057;BME280;36875;49.468;11.200;2024-02-23T12:05:14;96235.09;;;26.03;32.18
50057;BME280;36875;49.468;11.200;2024-02-23T12:07:40;96225.66;;;26.37;31.13
50057;BME280;36875;49.468;11.200;2024-02-23T12:10:07;96220.91;;;26.77;30.30
50057;BME280;36875;49.468;11.200;2024-02-23T12:12:34;96224.84;;;26.76;30.44
50057;BME280;36875;49.468;11.200;2024-02-23T12:15:00;96227.97;;;26.85;30.74
50057;BME280;36875;49.468;11.200;2024-02-23T12:17:25;96221.28;;;26.89;30.68
50057;BME280;36875;49.468;11.200;2024-02-23T12:19:57;96221.69;;;26.59;30.87
50057;BME280;36875;49.468;11.200;2024-02-23T12:22:24;96220.53;;;26.64;30.86
50057;BME280;36875;49.468;11.200;2024-02-23T12:24:49;96216.56;;;26.65;30.70
50057;BME280;36875;49.468;11.200;2024-02-23T12:27:16;96217.38;;;26.54;30.93
50057;BME280;36875;49.468;11.200;2024-02-23T12:29:51;96189.38;;;26.52;30.78
50057;BME280;36875;49.468;11.200;2024-02-23T12:32:20;96211.03;;;26.58;31.26
50057;BME280;36875;49.468;11.200;2024-02-23T12:34:45;96207.13;;;26.51;30.91
50057;BME280;36875;49.468;11.200;2024-02-23T12:37:14;96203.19;;;26.42;31.68
50057;BME280;36875;49.468;11.200;2024-02-23T12:39:40;96181.91;;;26.17;31.13
50057;BME280;36875;49.468;11.200;2024-02-23T12:42:05;96199.66;;;26.23;31.67